sensor_id;sensor_type;location;lat;lon;timestamp;P1;durP1;ratioP1;P2;durP2;ratioP2
10947;SDS011;5526;42.070;24.752;2023-04-24T00:01:23;8.98;;;8.10;;
10947;SDS011;5526;42.070;24.752;2023-04-24T00:03:50;8.45;;;7.75;;
10947;SDS011;5526;42.070;24.752;2023-04-24T00:06:19;9.18;;;8.27;;
10947;SDS011;5526;42.070;24.752;2023-04-24T00:08:48;10.82;;;8.75;;
10947;SDS011;5526;42.070;24.752;2023-04-24T00:11:16;10.63;;;8.70;;
10947;SDS011;5526;42.070;24.752;2023-04-24T00:13:43;9.63;;;8.73;;
10947;SDS011;5526;42.070;24.752;2023-04-24T00:16:10;10.55;;;9.55;;
10947;SDS011;5526;42.070;24.752;2023-04-24T00:18:37;11.40;;;8.82;;
10947;SDS011;5526;42.070;24.752;2023-04-24T00:21:05;9.30;;;8.20;;
10947;SDS011;5526;42.070;24.752;2023-04-24T00:23:33;9.73;;;8.68;;
10947;SDS011;5526;42.070;24.752;2023-04-24T00:26:01;9.32;;;8.40;;
10947;SDS011;5526;42.070;24.752;2023-04-24T00:28:28;9.52;;;8.63;;
10947;SDS011;5526;42.070;24.752;2023-04-24T00:30:55;10.82;;;8.23;;
10947;SDS011;5526;42.070;24.752;2023-04-24T00:33:22;8.90;;;8.10;;
10947;SDS011;5526;42.070;24.752;2023-04-24T00:35:50;9.25;;;8.35;;
10947;SDS011;5526;42.070;24.752;2023-04-24T00:38:17;9.20;;;8.32;;
10947;SDS011;5526;42.070;24.752;2023-04-24T00:40:45;10.23;;;8.68;;
10947;SDS011;5526;42.070;24.752;2023-04-24T00:43:15;9.10;;;8.30;;
10947;SDS011;5526;42.070;24.752;2023-04-24T00:45:42;9.38;;;8.52;;
10947;SDS011;5526;42.070;24.752;2023-04-24T00:48:09;9.38;;;8.52;;
10947;SDS011;5526;42.070;24.752;2023-04-24T00:50:38;9.65;;;8.75;;
10947;SDS011;5526;42.070;24.752;2023-04-24T00:53:05;10.88;;;8.32;;
10947;SDS011;5526;42.070;24.752;2023-04-24T00:55:33;9.70;;;8.80;;
10947;SDS011;5526;42.070;24.752;2023-04-24T00:58:01;9.82;;;8.90;;
10947;SDS011;5526;42.070;24.752;2023-04-24T01:00:29;10.00;;;9.00;;
10947;SDS011;5526;42.070;24.752;2023-04-24T01:02:57;10.63;;;9.15;;
10947;SDS011;5526;42.070;24.752;2023-04-24T01:05:25;11.75;;;10.60;;
10947;SDS011;5526;42.070;24.752;2023-04-24T01:07:53;12.50;;;11.27;;
10947;SDS011;5526;42.070;24.752;2023-04-24T01:10:20;12.45;;;11.35;;
10947;SDS011;5526;42.070;24.752;2023-04-24T01:12:47;11.02;;;10.00;;
10947;SDS011;5526;42.070;24.752;2023-04-24T01:15:16;11.48;;;10.32;;
10947;SDS011;5526;42.070;24.752;2023-04-24T01:17:43;11.15;;;10.15;;
10947;SDS011;5526;42.070;24.752;2023-04-24T01:20:10;10.63;;;9.65;;
10947;SDS011;5526;42.070;24.752;2023-04-24T01:22:41;11.20;;;10.10;;
10947;SDS011;5526;42.070;24.752;2023-04-24T01:25:08;13.65;;;10.43;;
10947;SDS011;5526;42.070;24.752;2023-04-24T01:27:36;11.18;;;9.93;;
10947;SDS011;5526;42.070;24.752;2023-04-24T01:30:03;13.25;;;10.52;;
10947;SDS011;5526;42.070;24.752;2023-04-24T01:32:32;11.05;;;9.95;;
10947;SDS011;5526;42.070;24.752;2023-04-24T01:34:59;11.43;;;10.32;;
10947;SDS011;5526;42.070;24.752;2023-04-24T01:37:27;11.23;;;10.18;;
10947;SDS011;5526;42.070;24.752;2023-04-24T01:39:56;12.38;;;11.15;;
10947;SDS011;5526;42.070;24.752;2023-04-24T01:42:23;12.07;;;10.38;;
10947;SDS011;5526;42.070;24.752;2023-04-24T01:44:50;11.52;;;10.30;;
10947;SDS011;5526;42.070;24.752;2023-04-24T01:47:18;11.27;;;10.15;;
10947;SDS011;5526;42.070;24.752;2023-04-24T01:49:45;11.23;;;10.20;;
10947;SDS011;5526;42.070;24.752;2023-04-24T01:52:14;13.27;;;10.40;;
10947;SDS011;5526;42.070;24.752;2023-04-24T01:54:41;12.02;;;10.50;;
10947;SDS011;5526;42.070;24.752;2023-04-24T01:57:10;12.00;;;10.80;;
10947;SDS011;5526;42.070;24.752;2023-04-24T01:59:37;12.27;;;11.00;;
10947;SDS011;5526;42.070;24.752;2023-04-24T02:02:05;12.18;;;10.98;;
10947;SDS011;5526;42.070;24.752;2023-04-24T02:04:32;14.43;;;12.07;;
10947;SDS011;5526;42.070;24.752;2023-04-24T02:06:59;14.30;;;11.88;;
10947;SDS011;5526;42.070;24.752;2023-04-24T02:09:26;13.25;;;11.95;;
10947;SDS011;5526;42.070;24.752;2023-04-24T02:11:53;12.55;;;11.23;;
10947;SDS011;5526;42.070;24.752;2023-04-24T02:14:23;12.68;;;11.48;;
10947;SDS011;5526;42.070;24.752;2023-04-24T02:16:50;12.32;;;11.23;;
10947;SDS011;5526;42.070;24.752;2023-04-24T02:19:18;12.98;;;11.68;;
10947;SDS011;5526;42.070;24.752;2023-04-24T02:21:45;12.30;;;11.20;;
10947;SDS011;5526;42.070;24.752;2023-04-24T02:24:13;11.85;;;10.65;;
10947;SDS011;5526;42.070;24.752;2023-04-24T02:26:41;12.98;;;11.65;;
10947;SDS011;5526;42.070;24.752;2023-04-24T02:29:08;14.00;;;11.95;;
10947;SDS011;5526;42.070;24.752;2023-04-24T02:31:37;11.57;;;10.38;;
10947;SDS011;5526;42.070;24.752;2023-04-24T02:34:04;12.30;;;11.20;;
10947;SDS011;5526;42.070;24.752;2023-04-24T02:36:31;11.88;;;10.77;;
10947;SDS011;5526;42.070;24.752;2023-04-24T02:38:59;12.18;;;9.98;;
10947;SDS011;5526;42.070;24.752;2023-04-24T02:41:26;12.00;;;10.75;;
10947;SDS011;5526;42.070;24.752;2023-04-24T02:43:56;11.20;;;10.10;;
10947;SDS011;5526;42.070;24.752;2023-04-24T02:46:24;10.18;;;9.18;;
10947;SDS011;5526;42.070;24.752;2023-04-24T02:48:52;10.93;;;9.30;;
10947;SDS011;5526;42.070;24.752;2023-04-24T02:51:19;9.50;;;8.50;;
10947;SDS011;5526;42.070;24.752;2023-04-24T02:53:47;9.05;;;8.30;;
10947;SDS011;5526;42.070;24.752;2023-04-24T02:56:14;9.02;;;8.13;;
10947;SDS011;5526;42.070;24.752;2023-04-24T02:58:41;8.57;;;7.82;;
10947;SDS011;5526;42.070;24.752;2023-04-24T03:01:08;7.93;;;7.32;;
10947;SDS011;5526;42.070;24.752;2023-04-24T03:03:36;8.60;;;7.90;;
10947;SDS011;5526;42.070;24.752;2023-04-24T03:06:05;8.23;;;7.53;;
10947;SDS011;5526;42.070;24.752;2023-04-24T03:08:33;7.97;;;7.28;;
10947;SDS011;5526;42.070;24.752;2023-04-24T03:11:00;7.55;;;6.95;;
10947;SDS011;5526;42.070;24.752;2023-04-24T03:13:27;7.43;;;6.70;;
10947;SDS011;5526;42.070;24.752;2023-04-24T03:15:54;8.82;;;8.02;;
10947;SDS011;5526;42.070;24.752;2023-04-24T03:18:22;10.50;;;9.65;;
10947;SDS011;5526;42.070;24.752;2023-04-24T03:20:49;10.10;;;9.30;;
10947;SDS011;5526;42.070;24.752;2023-04-24T03:23:18;12.45;;;11.07;;
10947;SDS011;5526;42.070;24.752;2023-04-24T03:25:45;9.77;;;8.88;;
10947;SDS011;5526;42.070;24.752;2023-04-24T03:28:13;9.85;;;8.95;;
10947;SDS011;5526;42.070;24.752;2023-04-24T03:30:40;8.90;;;8.10;;
10947;SDS011;5526;42.070;24.752;2023-04-24T03:33:08;8.32;;;7.53;;
10947;SDS011;5526;42.070;24.752;2023-04-24T03:35:35;8.05;;;7.35;;
10947;SDS011;5526;42.070;24.752;2023-04-24T03:38:02;7.82;;;7.13;;
10947;SDS011;5526;42.070;24.752;2023-04-24T03:40:32;7.82;;;7.13;;
10947;SDS011;5526;42.070;24.752;2023-04-24T03:42:59;8.05;;;7.35;;
10947;SDS011;5526;42.070;24.752;2023-04-24T03:45:27;8.15;;;7.45;;
10947;SDS011;5526;42.070;24.752;2023-04-24T03:47:54;8.18;;;7.38;;
10947;SDS011;5526;42.070;24.752;2023-04-24T03:50:21;8.65;;;7.78;;
10947;SDS011;5526;42.070;24.752;2023-04-24T03:52:48;9.13;;;7.40;;
10947;SDS011;5526;42.070;24.752;2023-04-24T03:55:16;8.25;;;7.45;;
10947;SDS011;5526;42.070;24.752;2023-04-24T03:57:44;11.13;;;10.15;;
10947;SDS011;5526;42.070;24.752;2023-04-24T04:00:12;9.68;;;8.88;;
10947;SDS011;5526;42.070;24.752;2023-04-24T04:02:39;8.55;;;7.75;;
10947;SDS011;5526;42.070;24.752;2023-04-24T04:05:07;9.52;;;7.32;;
10947;SDS011;5526;42.070;24.752;2023-04-24T04:07:34;12.07;;;7.43;;
10947;SDS011;5526;42.070;24.752;2023-04-24T04:10:01;8.43;;;7.63;;
10947;SDS011;5526;42.070;24.752;2023-04-24T04:12:29;9.20;;;7.80;;
10947;SDS011;5526;42.070;24.752;2023-04-24T04:14:57;10.15;;;9.15;;
10947;SDS011;5526;42.070;24.752;2023-04-24T04:17:25;11.75;;;9.80;;
10947;SDS011;5526;42.070;24.752;2023-04-24T04:19:52;13.18;;;10.30;;
10947;SDS011;5526;42.070;24.752;2023-04-24T04:22:20;10.60;;;9.07;;
10947;SDS011;5526;42.070;24.752;2023-04-24T04:24:47;10.82;;;9.65;;
10947;SDS011;5526;42.070;24.752;2023-04-24T04:27:16;11.13;;;9.88;;
10947;SDS011;5526;42.070;24.752;2023-04-24T04:29:43;10.52;;;9.63;;
10947;SDS011;5526;42.070;24.752;2023-04-24T04:32:12;10.75;;;9.68;;
10947;SDS011;5526;42.070;24.752;2023-04-24T04:34:40;10.77;;;9.77;;
10947;SDS011;5526;42.070;24.752;2023-04-24T04:37:08;11.57;;;9.93;;
10947;SDS011;5526;42.070;24.752;2023-04-24T04:39:36;13.45;;;9.82;;
10947;SDS011;5526;42.070;24.752;2023-04-24T04:42:03;11.60;;;10.52;;
10947;SDS011;5526;42.070;24.752;2023-04-24T04:44:32;10.93;;;9.82;;
10947;SDS011;5526;42.070;24.752;2023-04-24T04:47:01;11.70;;;9.85;;
10947;SDS011;5526;42.070;24.752;2023-04-24T04:49:32;10.95;;;10.02;;
10947;SDS011;5526;42.070;24.752;2023-04-24T04:51:59;10.82;;;9.57;;
10947;SDS011;5526;42.070;24.752;2023-04-24T04:54:27;9.90;;;9.00;;
10947;SDS011;5526;42.070;24.752;2023-04-24T04:56:54;10.38;;;9.27;;
10947;SDS011;5526;42.070;24.752;2023-04-24T04:59:22;10.50;;;9.48;;
10947;SDS011;5526;42.070;24.752;2023-04-24T05:01:50;10.65;;;9.60;;
10947;SDS011;5526;42.070;24.752;2023-04-24T05:04:17;10.88;;;9.90;;
10947;SDS011;5526;42.070;24.752;2023-04-24T05:06:45;11.90;;;10.80;;
10947;SDS011;5526;42.070;24.752;2023-04-24T05:09:13;11.15;;;10.15;;
10947;SDS011;5526;42.070;24.752;2023-04-24T05:11:41;11.38;;;10.32;;
10947;SDS011;5526;42.070;24.752;2023-04-24T05:14:08;12.02;;;10.93;;
10947;SDS011;5526;42.070;24.752;2023-04-24T05:16:35;10.48;;;9.38;;
10947;SDS011;5526;42.070;24.752;2023-04-24T05:19:03;12.73;;;11.18;;
10947;SDS011;5526;42.070;24.752;2023-04-24T05:21:30;11.63;;;10.63;;
10947;SDS011;5526;42.070;24.752;2023-04-24T05:23:59;11.20;;;10.15;;
10947;SDS011;5526;42.070;24.752;2023-04-24T05:26:26;11.32;;;10.23;;
10947;SDS011;5526;42.070;24.752;2023-04-24T05:28:53;10.65;;;9.63;;
10947;SDS011;5526;42.070;24.752;2023-04-24T05:31:20;11.82;;;10.55;;
10947;SDS011;5526;42.070;24.752;2023-04-24T05:33:48;11.15;;;9.95;;
10947;SDS011;5526;42.070;24.752;2023-04-24T05:36:15;10.32;;;9.38;;
10947;SDS011;5526;42.070;24.752;2023-04-24T05:38:42;10.35;;;9.32;;
10947;SDS011;5526;42.070;24.752;2023-04-24T05:41:11;11.85;;;9.50;;
10947;SDS011;5526;42.070;24.752;2023-04-24T05:43:38;10.05;;;9.15;;
10947;SDS011;5526;42.070;24.752;2023-04-24T05:46:05;10.57;;;9.48;;
10947;SDS011;5526;42.070;24.752;2023-04-24T05:48:32;11.10;;;10.07;;
10947;SDS011;5526;42.070;24.752;2023-04-24T05:51:00;11.82;;;10.50;;
10947;SDS011;5526;42.070;24.752;2023-04-24T05:53:27;12.55;;;11.10;;
10947;SDS011;5526;42.070;24.752;2023-04-24T05:55:54;14.40;;;12.57;;
10947;SDS011;5526;42.070;24.752;2023-04-24T05:58:23;15.27;;;13.48;;
10947;SDS011;5526;42.070;24.752;2023-04-24T06:00:50;13.32;;;12.10;;
10947;SDS011;5526;42.070;24.752;2023-04-24T06:03:17;14.02;;;11.98;;
10947;SDS011;5526;42.070;24.752;2023-04-24T06:05:44;15.48;;;12.43;;
10947;SDS011;5526;42.070;24.752;2023-04-24T06:08:11;13.77;;;10.88;;
10947;SDS011;5526;42.070;24.752;2023-04-24T06:10:39;12.68;;;11.38;;
10947;SDS011;5526;42.070;24.752;2023-04-24T06:13:06;13.05;;;11.52;;
10947;SDS011;5526;42.070;24.752;2023-04-24T06:15:35;12.80;;;11.48;;
10947;SDS011;5526;42.070;24.752;2023-04-24T06:18:02;12.82;;;11.73;;
10947;SDS011;5526;42.070;24.752;2023-04-24T06:20:29;15.20;;;11.05;;
10947;SDS011;5526;42.070;24.752;2023-04-24T06:22:57;11.90;;;10.70;;
10947;SDS011;5526;42.070;24.752;2023-04-24T06:25:24;12.25;;;11.05;;
10947;SDS011;5526;42.070;24.752;2023-04-24T06:27:52;12.18;;;10.75;;
10947;SDS011;5526;42.070;24.752;2023-04-24T06:30:20;12.70;;;10.90;;
10947;SDS011;5526;42.070;24.752;2023-04-24T06:32:48;12.00;;;10.80;;
10947;SDS011;5526;42.070;24.752;2023-04-24T06:35:16;11.95;;;10.75;;
10947;SDS011;5526;42.070;24.752;2023-04-24T06:37:43;10.90;;;9.85;;
10947;SDS011;5526;42.070;24.752;2023-04-24T06:40:10;13.07;;;11.45;;
10947;SDS011;5526;42.070;24.752;2023-04-24T06:42:37;10.98;;;9.77;;
10947;SDS011;5526;42.070;24.752;2023-04-24T06:45:05;11.55;;;10.32;;
10947;SDS011;5526;42.070;24.752;2023-04-24T06:47:33;12.10;;;10.23;;
10947;SDS011;5526;42.070;24.752;2023-04-24T06:50:01;11.55;;;10.38;;
10947;SDS011;5526;42.070;24.752;2023-04-24T06:52:29;11.05;;;10.10;;
10947;SDS011;5526;42.070;24.752;2023-04-24T06:54:59;11.60;;;10.40;;
10947;SDS011;5526;42.070;24.752;2023-04-24T06:57:27;11.38;;;10.30;;
10947;SDS011;5526;42.070;24.752;2023-04-24T06:59:54;10.98;;;9.98;;
10947;SDS011;5526;42.070;24.752;2023-04-24T07:02:22;11.75;;;9.35;;
10947;SDS011;5526;42.070;24.752;2023-04-24T07:04:49;9.75;;;8.85;;
10947;SDS011;5526;42.070;24.752;2023-04-24T07:07:18;10.73;;;9.70;;
10947;SDS011;5526;42.070;24.752;2023-04-24T07:09:45;10.23;;;9.32;;
10947;SDS011;5526;42.070;24.752;2023-04-24T07:12:12;12.20;;;11.00;;
10947;SDS011;5526;42.070;24.752;2023-04-24T07:14:39;11.13;;;10.20;;
10947;SDS011;5526;42.070;24.752;2023-04-24T07:17:07;12.70;;;10.25;;
10947;SDS011;5526;42.070;24.752;2023-04-24T07:19:34;13.00;;;11.60;;
10947;SDS011;5526;42.070;24.752;2023-04-24T07:22:01;12.88;;;11.40;;
10947;SDS011;5526;42.070;24.752;2023-04-24T07:24:30;12.18;;;10.88;;
10947;SDS011;5526;42.070;24.752;2023-04-24T07:26:58;12.70;;;11.45;;
10947;SDS011;5526;42.070;24.752;2023-04-24T07:29:26;14.07;;;11.63;;
10947;SDS011;5526;42.070;24.752;2023-04-24T07:31:53;11.38;;;10.38;;
10947;SDS011;5526;42.070;24.752;2023-04-24T07:34:21;13.43;;;11.18;;
10947;SDS011;5526;42.070;24.752;2023-04-24T07:36:48;13.55;;;11.18;;
10947;SDS011;5526;42.070;24.752;2023-04-24T07:39:16;12.98;;;11.38;;
10947;SDS011;5526;42.070;24.752;2023-04-24T07:41:44;10.88;;;9.80;;
10947;SDS011;5526;42.070;24.752;2023-04-24T07:44:11;11.52;;;9.70;;
10947;SDS011;5526;42.070;24.752;2023-04-24T07:46:39;12.48;;;11.00;;
10947;SDS011;5526;42.070;24.752;2023-04-24T07:49:07;12.10;;;10.23;;
10947;SDS011;5526;42.070;24.752;2023-04-24T07:51:34;10.45;;;9.38;;
10947;SDS011;5526;42.070;24.752;2023-04-24T07:54:03;11.02;;;9.90;;
10947;SDS011;5526;42.070;24.752;2023-04-24T07:56:32;10.57;;;9.50;;
10947;SDS011;5526;42.070;24.752;2023-04-24T07:59:00;10.43;;;9.27;;
10947;SDS011;5526;42.070;24.752;2023-04-24T08:01:27;10.90;;;9.80;;
10947;SDS011;5526;42.070;24.752;2023-04-24T08:03:55;11.55;;;10.35;;
10947;SDS011;5526;42.070;24.752;2023-04-24T08:06:22;10.77;;;9.35;;
10947;SDS011;5526;42.070;24.752;2023-04-24T08:08:51;10.80;;;9.35;;
10947;SDS011;5526;42.070;24.752;2023-04-24T08:11:18;10.25;;;9.23;;
10947;SDS011;5526;42.070;24.752;2023-04-24T08:13:45;10.38;;;9.30;;
10947;SDS011;5526;42.070;24.752;2023-04-24T08:16:14;11.20;;;9.60;;
10947;SDS011;5526;42.070;24.752;2023-04-24T08:18:41;10.75;;;9.68;;
10947;SDS011;5526;42.070;24.752;2023-04-24T08:21:08;13.95;;;9.88;;
10947;SDS011;5526;42.070;24.752;2023-04-24T08:23:38;9.82;;;8.93;;
10947;SDS011;5526;42.070;24.752;2023-04-24T08:26:05;10.48;;;9.48;;
10947;SDS011;5526;42.070;24.752;2023-04-24T08:28:32;10.82;;;9.75;;
10947;SDS011;5526;42.070;24.752;2023-04-24T08:30:59;10.57;;;9.57;;
10947;SDS011;5526;42.070;24.752;2023-04-24T08:33:28;11.63;;;10.20;;
10947;SDS011;5526;42.070;24.752;2023-04-24T08:35:59;10.43;;;9.45;;
10947;SDS011;5526;42.070;24.752;2023-04-24T08:38:26;11.57;;;10.43;;
10947;SDS011;5526;42.070;24.752;2023-04-24T08:40:54;11.48;;;10.10;;
10947;SDS011;5526;42.070;24.752;2023-04-24T08:43:22;11.50;;;10.35;;
10947;SDS011;5526;42.070;24.752;2023-04-24T08:45:51;10.70;;;9.70;;
10947;SDS011;5526;42.070;24.752;2023-04-24T08:48:19;11.18;;;10.07;;
10947;SDS011;5526;42.070;24.752;2023-04-24T08:50:50;10.02;;;9.15;;
10947;SDS011;5526;42.070;24.752;2023-04-24T08:53:17;10.05;;;9.15;;
10947;SDS011;5526;42.070;24.752;2023-04-24T08:55:46;10.30;;;9.38;;
10947;SDS011;5526;42.070;24.752;2023-04-24T08:58:15;11.05;;;9.25;;
10947;SDS011;5526;42.070;24.752;2023-04-24T09:00:43;9.27;;;8.38;;
10947;SDS011;5526;42.070;24.752;2023-04-24T09:03:13;9.57;;;8.70;;
10947;SDS011;5526;42.070;24.752;2023-04-24T09:05:41;9.38;;;8.45;;
10947;SDS011;5526;42.070;24.752;2023-04-24T09:08:12;8.77;;;7.97;;
10947;SDS011;5526;42.070;24.752;2023-04-24T09:10:40;9.35;;;8.45;;
10947;SDS011;5526;42.070;24.752;2023-04-24T09:13:08;10.07;;;9.18;;
10947;SDS011;5526;42.070;24.752;2023-04-24T09:15:36;7.85;;;7.13;;
10947;SDS011;5526;42.070;24.752;2023-04-24T09:18:04;8.48;;;7.57;;
10947;SDS011;5526;42.070;24.752;2023-04-24T09:20:31;8.48;;;7.68;;
10947;SDS011;5526;42.070;24.752;2023-04-24T09:23:00;8.05;;;7.47;;
10947;SDS011;5526;42.070;24.752;2023-04-24T09:25:32;10.07;;;8.05;;
10947;SDS011;5526;42.070;24.752;2023-04-24T09:28:01;8.82;;;7.93;;
10947;SDS011;5526;42.070;24.752;2023-04-24T09:30:29;12.25;;;7.78;;
10947;SDS011;5526;42.070;24.752;2023-04-24T09:33:12;7.03;;;6.32;;
10947;SDS011;5526;42.070;24.752;2023-04-24T09:35:41;7.93;;;7.22;;
10947;SDS011;5526;42.070;24.752;2023-04-24T09:38:09;9.25;;;7.40;;
10947;SDS011;5526;42.070;24.752;2023-04-24T09:40:38;8.85;;;7.32;;
10947;SDS011;5526;42.070;24.752;2023-04-24T09:43:09;9.35;;;7.38;;
10947;SDS011;5526;42.070;24.752;2023-04-24T09:45:37;8.32;;;7.43;;
10947;SDS011;5526;42.070;24.752;2023-04-24T09:48:06;9.68;;;6.80;;
10947;SDS011;5526;42.070;24.752;2023-04-24T09:50:36;7.07;;;6.47;;
10947;SDS011;5526;42.070;24.752;2023-04-24T09:53:04;9.60;;;6.38;;
10947;SDS011;5526;42.070;24.752;2023-04-24T09:55:35;8.65;;;6.50;;
10947;SDS011;5526;42.070;24.752;2023-04-24T09:58:11;6.75;;;6.15;;
10947;SDS011;5526;42.070;24.752;2023-04-24T10:00:38;6.82;;;6.18;;
10947;SDS011;5526;42.070;24.752;2023-04-24T10:03:06;6.78;;;6.22;;
10947;SDS011;5526;42.070;24.752;2023-04-24T10:05:34;6.55;;;6.05;;
10947;SDS011;5526;42.070;24.752;2023-04-24T10:08:03;6.95;;;6.30;;
10947;SDS011;5526;42.070;24.752;2023-04-24T10:10:32;7.40;;;6.80;;
10947;SDS011;5526;42.070;24.752;2023-04-24T10:13:02;7.40;;;6.13;;
10947;SDS011;5526;42.070;24.752;2023-04-24T10:15:32;7.90;;;7.05;;
10947;SDS011;5526;42.070;24.752;2023-04-24T10:17:59;7.57;;;6.78;;
10947;SDS011;5526;42.070;24.752;2023-04-24T10:20:27;6.60;;;6.00;;
10947;SDS011;5526;42.070;24.752;2023-04-24T10:22:56;7.57;;;6.53;;
10947;SDS011;5526;42.070;24.752;2023-04-24T10:25:25;9.48;;;8.57;;
10947;SDS011;5526;42.070;24.752;2023-04-24T10:27:53;10.20;;;9.20;;
10947;SDS011;5526;42.070;24.752;2023-04-24T10:30:26;8.45;;;7.75;;
10947;SDS011;5526;42.070;24.752;2023-04-24T10:32:55;8.23;;;7.50;;
10947;SDS011;5526;42.070;24.752;2023-04-24T10:35:23;7.32;;;6.75;;
10947;SDS011;5526;42.070;24.752;2023-04-24T10:37:54;11.38;;;10.27;;
10947;SDS011;5526;42.070;24.752;2023-04-24T10:40:25;9.52;;;7.35;;
10947;SDS011;5526;42.070;24.752;2023-04-24T10:42:53;6.25;;;5.65;;
10947;SDS011;5526;42.070;24.752;2023-04-24T10:45:22;6.30;;;5.78;;
10947;SDS011;5526;42.070;24.752;2023-04-24T10:47:53;8.27;;;7.45;;
10947;SDS011;5526;42.070;24.752;2023-04-24T10:50:25;8.02;;;5.28;;
10947;SDS011;5526;42.070;24.752;2023-04-24T10:52:53;12.85;;;11.52;;
10947;SDS011;5526;42.070;24.752;2023-04-24T10:55:41;12.82;;;11.65;;
10947;SDS011;5526;42.070;24.752;2023-04-24T10:58:10;10.07;;;8.40;;
10947;SDS011;5526;42.070;24.752;2023-04-24T11:00:38;13.88;;;12.40;;
10947;SDS011;5526;42.070;24.752;2023-04-24T11:03:12;7.85;;;6.72;;
10947;SDS011;5526;42.070;24.752;2023-04-24T11:05:52;7.65;;;7.05;;
10947;SDS011;5526;42.070;24.752;2023-04-24T11:08:22;5.97;;;5.47;;
10947;SDS011;5526;42.070;24.752;2023-04-24T11:10:56;6.03;;;5.43;;
10947;SDS011;5526;42.070;24.752;2023-04-24T11:13:25;5.82;;;5.30;;
10947;SDS011;5526;42.070;24.752;2023-04-24T11:16:12;6.00;;;5.50;;
10947;SDS011;5526;42.070;24.752;2023-04-24T11:18:43;5.68;;;5.28;;
10947;SDS011;5526;42.070;24.752;2023-04-24T11:21:16;5.95;;;5.45;;
10947;SDS011;5526;42.070;24.752;2023-04-24T11:23:44;7.75;;;6.38;;
10947;SDS011;5526;42.070;24.752;2023-04-24T11:26:12;6.20;;;5.65;;
10947;SDS011;5526;42.070;24.752;2023-04-24T11:28:46;6.47;;;5.82;;
10947;SDS011;5526;42.070;24.752;2023-04-24T11:34:09;5.72;;;5.22;;
10947;SDS011;5526;42.070;24.752;2023-04-24T11:36:38;6.10;;;5.60;;
10947;SDS011;5526;42.070;24.752;2023-04-24T11:39:06;5.85;;;5.20;;
10947;SDS011;5526;42.070;24.752;2023-04-24T11:41:33;6.57;;;5.97;;
10947;SDS011;5526;42.070;24.752;2023-04-24T11:44:02;5.93;;;5.45;;
10947;SDS011;5526;42.070;24.752;2023-04-24T11:46:29;6.05;;;5.45;;
10947;SDS011;5526;42.070;24.752;2023-04-24T11:48:57;6.13;;;5.53;;
10947;SDS011;5526;42.070;24.752;2023-04-24T11:51:27;7.20;;;5.53;;
10947;SDS011;5526;42.070;24.752;2023-04-24T11:53:55;6.63;;;5.18;;
10947;SDS011;5526;42.070;24.752;2023-04-24T11:56:22;5.60;;;5.20;;
10947;SDS011;5526;42.070;24.752;2023-04-24T11:58:51;6.10;;;5.60;;
10947;SDS011;5526;42.070;24.752;2023-04-24T12:01:19;6.25;;;5.60;;
10947;SDS011;5526;42.070;24.752;2023-04-24T12:03:48;5.90;;;5.38;;
10947;SDS011;5526;42.070;24.752;2023-04-24T12:06:16;5.63;;;5.22;;
10947;SDS011;5526;42.070;24.752;2023-04-24T12:08:47;6.10;;;5.50;;
10947;SDS011;5526;42.070;24.752;2023-04-24T12:11:15;5.13;;;4.72;;
10947;SDS011;5526;42.070;24.752;2023-04-24T12:13:44;5.30;;;4.90;;
10947;SDS011;5526;42.070;24.752;2023-04-24T12:16:12;5.93;;;5.50;;
10947;SDS011;5526;42.070;24.752;2023-04-24T12:18:43;7.10;;;5.10;;
10947;SDS011;5526;42.070;24.752;2023-04-24T12:21:14;5.60;;;5.10;;
10947;SDS011;5526;42.070;24.752;2023-04-24T12:23:42;5.57;;;5.07;;
10947;SDS011;5526;42.070;24.752;2023-04-24T12:26:12;5.25;;;4.75;;
10947;SDS011;5526;42.070;24.752;2023-04-24T12:28:45;5.57;;;5.07;;
10947;SDS011;5526;42.070;24.752;2023-04-24T12:31:14;5.07;;;4.60;;
10947;SDS011;5526;42.070;24.752;2023-04-24T12:33:42;5.05;;;4.65;;
10947;SDS011;5526;42.070;24.752;2023-04-24T12:36:10;4.72;;;4.35;;
10947;SDS011;5526;42.070;24.752;2023-04-24T12:38:39;4.97;;;4.53;;
10947;SDS011;5526;42.070;24.752;2023-04-24T12:41:10;6.88;;;4.53;;
10947;SDS011;5526;42.070;24.752;2023-04-24T12:43:50;4.80;;;4.40;;
10947;SDS011;5526;42.070;24.752;2023-04-24T12:46:18;4.40;;;4.00;;
10947;SDS011;5526;42.070;24.752;2023-04-24T12:48:46;4.93;;;4.47;;
10947;SDS011;5526;42.070;24.752;2023-04-24T12:51:13;5.60;;;4.95;;
10947;SDS011;5526;42.070;24.752;2023-04-24T12:53:41;4.88;;;4.50;;
10947;SDS011;5526;42.070;24.752;2023-04-24T12:56:08;5.38;;;3.88;;
10947;SDS011;5526;42.070;24.752;2023-04-24T12:58:37;4.75;;;4.38;;
10947;SDS011;5526;42.070;24.752;2023-04-24T13:01:04;5.88;;;4.53;;
10947;SDS011;5526;42.070;24.752;2023-04-24T13:03:31;5.07;;;4.60;;
10947;SDS011;5526;42.070;24.752;2023-04-24T13:05:59;4.07;;;3.83;;
10947;SDS011;5526;42.070;24.752;2023-04-24T13:08:26;5.70;;;4.13;;
10947;SDS011;5526;42.070;24.752;2023-04-24T13:10:53;4.50;;;4.18;;
10947;SDS011;5526;42.070;24.752;2023-04-24T13:13:21;4.75;;;4.43;;
10947;SDS011;5526;42.070;24.752;2023-04-24T13:15:49;4.30;;;4.00;;
10947;SDS011;5526;42.070;24.752;2023-04-24T13:18:17;4.15;;;3.78;;
10947;SDS011;5526;42.070;24.752;2023-04-24T13:20:44;4.63;;;3.83;;
10947;SDS011;5526;42.070;24.752;2023-04-24T13:23:12;4.40;;;4.00;;
10947;SDS011;5526;42.070;24.752;2023-04-24T13:25:40;3.97;;;3.70;;
10947;SDS011;5526;42.070;24.752;2023-04-24T13:28:08;4.07;;;3.78;;
10947;SDS011;5526;42.070;24.752;2023-04-24T13:30:36;5.45;;;4.20;;
10947;SDS011;5526;42.070;24.752;2023-04-24T13:33:05;4.50;;;3.78;;
10947;SDS011;5526;42.070;24.752;2023-04-24T13:35:32;4.43;;;4.07;;
10947;SDS011;5526;42.070;24.752;2023-04-24T13:38:00;4.88;;;4.47;;
10947;SDS011;5526;42.070;24.752;2023-04-24T13:40:31;4.05;;;3.70;;
10947;SDS011;5526;42.070;24.752;2023-04-24T13:42:58;4.50;;;4.15;;
10947;SDS011;5526;42.070;24.752;2023-04-24T13:45:26;4.90;;;4.20;;
10947;SDS011;5526;42.070;24.752;2023-04-24T13:47:53;6.50;;;4.40;;
10947;SDS011;5526;42.070;24.752;2023-04-24T13:50:23;3.97;;;3.67;;
10947;SDS011;5526;42.070;24.752;2023-04-24T13:52:50;4.50;;;4.10;;
10947;SDS011;5526;42.070;24.752;2023-04-24T13:55:18;5.00;;;4.33;;
10947;SDS011;5526;42.070;24.752;2023-04-24T13:57:45;4.55;;;4.22;;
10947;SDS011;5526;42.070;24.752;2023-04-24T14:00:13;4.20;;;3.90;;
10947;SDS011;5526;42.070;24.752;2023-04-24T14:02:41;4.35;;;4.00;;
10947;SDS011;5526;42.070;24.752;2023-04-24T14:05:08;4.95;;;4.15;;
10947;SDS011;5526;42.070;24.752;2023-04-24T14:07:38;4.63;;;4.22;;
10947;SDS011;5526;42.070;24.752;2023-04-24T14:10:05;4.32;;;3.90;;
10947;SDS011;5526;42.070;24.752;2023-04-24T14:12:33;4.70;;;4.30;;
10947;SDS011;5526;42.070;24.752;2023-04-24T14:15:00;4.40;;;4.00;;
10947;SDS011;5526;42.070;24.752;2023-04-24T14:17:28;5.88;;;4.32;;
10947;SDS011;5526;42.070;24.752;2023-04-24T14:19:55;3.90;;;3.70;;
10947;SDS011;5526;42.070;24.752;2023-04-24T14:22:25;5.57;;;4.15;;
10947;SDS011;5526;42.070;24.752;2023-04-24T14:24:53;4.10;;;3.70;;
10947;SDS011;5526;42.070;24.752;2023-04-24T14:27:21;4.05;;;3.75;;
10947;SDS011;5526;42.070;24.752;2023-04-24T14:29:48;4.32;;;4.03;;
10947;SDS011;5526;42.070;24.752;2023-04-24T14:32:15;4.18;;;3.97;;
10947;SDS011;5526;42.070;24.752;2023-04-24T14:34:43;3.47;;;3.17;;
10947;SDS011;5526;42.070;24.752;2023-04-24T14:37:10;4.15;;;3.85;;
10947;SDS011;5526;42.070;24.752;2023-04-24T14:39:37;4.20;;;3.90;;
10947;SDS011;5526;42.070;24.752;2023-04-24T14:42:06;4.93;;;3.90;;
10947;SDS011;5526;42.070;24.752;2023-04-24T14:44:33;5.32;;;3.65;;
10947;SDS011;5526;42.070;24.752;2023-04-24T14:47:00;3.95;;;3.65;;